LED weather

Pulkovo Airport
St. Petersburg, Saint Petersburg (city), Russia

Public forecast

Using degrees Celsius for public forecast. Weather courtesy of forecast.io.

METAR (pilot weather report)

Retrieved 2019/03/24 14:30 UTC (28 minutes ago):

ULLI 241430Z 28011G18MPS 9999 SCT040 05/M05 Q1004 R88/090060 NOSIG

TAF (pilot weather forecast)

Retrieved 2019/03/24 15:21 UTC (0 seconds ago):

TAF ULLI 241400Z 2415/2515 26009G14MPS 9999 BKN025 TEMPO 2415/2419 27012G18MPS SCT011 BKN020 TEMPO 2419/2509 26005G10MPS 3100 -RA BR BKN011 FM250900 28004G09MPS 4000 -RASN BKN011 BKN020 TEMPO 2509/2515 30004MPS 3100 -SHSNRA BR BKN011 BKN017CB